createdAt,value
2018-05-21T00:00:46.021Z,15.16
2018-05-21T00:03:13.500Z,15.15
2018-05-21T00:05:41.257Z,15.10
2018-05-21T00:08:08.744Z,15.29
2018-05-21T00:10:36.245Z,15.27
2018-05-21T00:13:03.761Z,15.23
2018-05-21T00:15:31.261Z,15.35
2018-05-21T00:17:58.751Z,15.24
2018-05-21T00:20:26.445Z,15.19
2018-05-21T00:22:53.930Z,15.16
2018-05-21T00:25:21.432Z,15.10
2018-05-21T00:27:49.057Z,15.23
2018-05-21T00:30:16.545Z,15.16
2018-05-21T00:32:44.046Z,15.08
2018-05-21T00:35:11.785Z,15.08
2018-05-21T00:37:39.374Z,15.11
2018-05-21T00:40:06.877Z,15.10
2018-05-21T00:42:34.380Z,15.13
2018-05-21T00:45:01.879Z,15.15
2018-05-21T00:47:29.417Z,15.22
2018-05-21T00:49:56.897Z,15.20
2018-05-21T00:52:24.385Z,15.22
2018-05-21T00:55:03.709Z,15.11
2018-05-21T00:57:31.233Z,15.05
2018-05-21T00:59:58.720Z,14.98
2018-05-21T01:02:26.235Z,14.92
2018-05-21T01:04:53.741Z,14.99
2018-05-21T01:07:21.240Z,14.83
2018-05-21T01:09:48.772Z,15.00
2018-05-21T01:12:16.255Z,14.89
2018-05-21T01:14:43.733Z,14.89
2018-05-21T01:17:11.265Z,14.99
2018-05-21T01:19:38.755Z,15.06
2018-05-21T01:22:06.273Z,15.16
2018-05-21T01:24:33.782Z,15.14
2018-05-21T01:27:01.270Z,15.21
2018-05-21T01:29:28.777Z,15.09
2018-05-21T01:31:56.269Z,15.28
2018-05-21T01:34:23.957Z,15.29
2018-05-21T01:36:51.469Z,15.28
2018-05-21T01:39:18.953Z,15.38
2018-05-21T01:41:46.469Z,15.33
2018-05-21T01:44:13.972Z,15.34
2018-05-21T01:46:41.706Z,15.25
2018-05-21T01:49:09.185Z,15.09
2018-05-21T01:51:36.669Z,15.24
2018-05-21T01:54:04.181Z,15.24
2018-05-21T01:56:31.661Z,15.25
2018-05-21T01:58:59.327Z,15.07
2018-05-21T02:01:26.826Z,15.23
2018-05-21T02:03:54.314Z,15.13
2018-05-21T02:06:21.820Z,15.05
2018-05-21T02:08:49.317Z,14.83
2018-05-21T02:11:17.025Z,14.81
2018-05-21T02:13:44.521Z,14.72
2018-05-21T02:16:12.005Z,14.70
2018-05-21T02:18:39.517Z,14.71
2018-05-21T02:21:07.028Z,14.81
2018-05-21T02:23:34.678Z,14.79
2018-05-21T02:26:02.169Z,14.88
2018-05-21T02:28:29.654Z,14.63
2018-05-21T02:30:57.162Z,14.62
2018-05-21T02:33:24.654Z,14.57
2018-05-21T02:35:52.329Z,14.46
2018-05-21T02:38:19.928Z,14.54
2018-05-21T02:40:47.422Z,14.45
2018-05-21T02:43:14.928Z,14.44
2018-05-21T02:45:42.418Z,14.27
2018-05-21T02:48:10.087Z,14.00
2018-05-21T02:50:37.573Z,13.98
2018-05-21T02:53:05.057Z,13.91
2018-05-21T02:55:32.561Z,13.83
2018-05-21T02:58:00.048Z,13.88
2018-05-21T03:00:27.585Z,14.04
2018-05-21T03:02:55.065Z,13.89
2018-05-21T03:05:22.548Z,13.96
2018-05-21T03:07:50.059Z,13.83
2018-05-21T03:10:17.557Z,13.81
2018-05-21T03:12:45.085Z,14.04
2018-05-21T03:15:12.573Z,14.09
2018-05-21T03:17:40.072Z,14.00
2018-05-21T03:20:07.573Z,13.85
2018-05-21T03:22:35.067Z,13.83
2018-05-21T03:25:02.593Z,13.80
2018-05-21T03:27:30.076Z,13.81
2018-05-21T03:29:57.554Z,13.79
2018-05-21T03:32:25.077Z,13.72
2018-05-21T03:34:52.565Z,13.66
2018-05-21T03:37:20.200Z,13.58
2018-05-21T03:39:47.698Z,13.45
2018-05-21T03:42:15.205Z,13.66
2018-05-21T03:44:42.709Z,13.38
2018-05-21T03:47:10.197Z,13.50
2018-05-21T03:49:37.954Z,13.50
2018-05-21T03:52:05.464Z,13.45
2018-05-21T03:54:32.950Z,13.39
2018-05-21T03:57:00.531Z,13.44
2018-05-21T03:59:39.921Z,13.66
2018-05-21T04:02:19.415Z,13.74
2018-05-21T04:04:46.893Z,13.78
2018-05-21T04:07:14.407Z,13.99
2018-05-21T04:09:41.905Z,13.92
2018-05-21T04:12:09.658Z,14.12
2018-05-21T04:14:37.137Z,14.12
2018-05-21T04:17:04.637Z,14.09
2018-05-21T04:19:32.141Z,14.06
2018-05-21T04:21:59.641Z,14.08
2018-05-21T04:24:27.324Z,14.09
2018-05-21T04:26:54.800Z,14.33
2018-05-21T04:29:22.289Z,14.16
2018-05-21T04:31:49.796Z,14.14
2018-05-21T04:34:17.312Z,14.29
2018-05-21T04:36:45.085Z,14.57
2018-05-21T04:39:12.579Z,15.39
2018-05-21T04:41:40.070Z,15.93
2018-05-21T04:44:07.585Z,16.25
2018-05-21T04:46:35.069Z,16.18
2018-05-21T04:49:02.833Z,15.98
2018-05-21T04:51:30.328Z,16.02
2018-05-21T04:53:57.808Z,16.64
2018-05-21T04:56:25.328Z,16.30
2018-05-21T04:58:52.835Z,16.39
2018-05-21T05:01:20.509Z,16.20
2018-05-21T05:03:48.009Z,16.25
2018-05-21T05:06:15.493Z,16.05
2018-05-21T05:08:43.022Z,15.92
2018-05-21T05:11:10.508Z,15.76
2018-05-21T05:13:38.029Z,15.78
2018-05-21T05:16:05.525Z,15.99
2018-05-21T05:18:33.000Z,16.27
2018-05-21T05:21:00.506Z,16.11
2018-05-21T05:23:27.992Z,16.52
2018-05-21T05:25:55.722Z,16.77
2018-05-21T05:28:23.221Z,16.74
2018-05-21T05:30:50.725Z,17.01
2018-05-21T05:33:18.401Z,17.53
2018-05-21T05:35:45.886Z,17.69
2018-05-21T05:38:13.425Z,18.00
2018-05-21T05:40:40.908Z,18.10
2018-05-21T05:43:08.404Z,18.14
2018-05-21T05:45:35.929Z,17.74
2018-05-21T05:48:03.425Z,17.57
2018-05-21T05:50:30.946Z,18.09
2018-05-21T05:52:58.426Z,18.11
2018-05-21T05:55:25.913Z,18.30
2018-05-21T05:57:53.425Z,17.96
2018-05-21T06:00:20.913Z,18.00
2018-05-21T06:02:48.577Z,17.94
2018-05-21T06:05:16.056Z,18.56
2018-05-21T06:07:43.548Z,17.97
2018-05-21T06:10:11.056Z,18.54
2018-05-21T06:12:38.553Z,18.37
2018-05-21T06:15:06.168Z,18.24
2018-05-21T06:17:33.657Z,18.40
2018-05-21T06:20:01.159Z,18.30
2018-05-21T06:22:28.717Z,18.17
2018-05-21T06:24:56.196Z,18.22
2018-05-21T06:27:23.877Z,18.79
2018-05-21T06:29:51.362Z,18.33
2018-05-21T06:32:18.881Z,18.40
2018-05-21T06:34:46.409Z,18.10
2018-05-21T06:37:13.905Z,18.54
2018-05-21T06:39:41.452Z,18.73
2018-05-21T06:42:08.939Z,18.52
2018-05-21T06:44:36.454Z,18.65
2018-05-21T06:47:03.941Z,18.57
2018-05-21T06:49:31.434Z,18.69
2018-05-21T06:51:58.950Z,18.90
2018-05-21T06:54:26.437Z,18.68
2018-05-21T06:56:54.137Z,18.79
2018-05-21T06:59:21.720Z,18.69
2018-05-21T07:01:49.205Z,18.80
2018-05-21T07:04:16.718Z,18.85
2018-05-21T07:06:44.197Z,18.87
2018-05-21T07:09:11.729Z,18.92
2018-05-21T07:11:39.253Z,19.18
2018-05-21T07:14:06.777Z,19.12
2018-05-21T07:16:34.300Z,19.11
2018-05-21T07:19:01.781Z,19.07
2018-05-21T07:21:29.313Z,19.52
2018-05-21T07:23:56.797Z,19.48
2018-05-21T07:26:24.293Z,19.42
2018-05-21T07:28:51.798Z,19.47
2018-05-21T07:31:19.283Z,19.47
2018-05-21T07:33:47.117Z,19.45
2018-05-21T07:36:14.597Z,19.23
2018-05-21T07:38:42.175Z,19.44
2018-05-21T07:41:09.656Z,19.49
2018-05-21T07:43:37.166Z,19.47
2018-05-21T07:46:04.716Z,19.63
2018-05-21T07:48:32.205Z,19.51
2018-05-21T07:50:59.702Z,19.95
2018-05-21T07:53:27.233Z,19.71
2018-05-21T07:55:54.728Z,20.06
2018-05-21T07:58:22.687Z,19.96
2018-05-21T08:00:50.109Z,20.07
2018-05-21T08:03:17.607Z,19.93
2018-05-21T08:05:45.141Z,20.22
2018-05-21T08:08:12.626Z,20.29
2018-05-21T08:10:40.149Z,20.62
2018-05-21T08:13:07.717Z,20.43
2018-05-21T08:15:35.208Z,20.53
2018-05-21T08:18:02.722Z,20.13
2018-05-21T08:20:30.206Z,20.64
2018-05-21T08:22:57.869Z,20.46
2018-05-21T08:25:25.353Z,20.65
2018-05-21T08:27:52.832Z,20.70
2018-05-21T08:30:20.367Z,20.67
2018-05-21T08:32:47.855Z,20.49
2018-05-21T08:35:15.402Z,20.69
2018-05-21T08:37:42.885Z,20.71
2018-05-21T08:40:10.369Z,20.68
2018-05-21T08:42:37.946Z,21.03
2018-05-21T08:45:05.405Z,21.30
2018-05-21T08:47:33.046Z,20.89
2018-05-21T08:50:00.537Z,20.86
2018-05-21T08:52:28.020Z,21.01
2018-05-21T08:54:55.657Z,20.90
2018-05-21T08:57:23.165Z,21.29
2018-05-21T08:59:51.194Z,21.32
2018-05-21T09:02:18.681Z,21.35
2018-05-21T09:04:46.248Z,21.40
2018-05-21T09:07:13.740Z,21.31
2018-05-21T09:09:41.268Z,21.68
2018-05-21T09:12:08.948Z,21.70
2018-05-21T09:14:36.456Z,21.64
2018-05-21T09:17:03.945Z,21.62
2018-05-21T09:19:31.461Z,21.94
2018-05-21T09:21:58.946Z,21.94
2018-05-21T09:24:27.017Z,22.15
2018-05-21T09:26:54.498Z,22.35
2018-05-21T09:29:22.006Z,22.23
2018-05-21T09:31:49.533Z,22.47
2018-05-21T09:34:17.013Z,22.49
2018-05-21T09:36:44.525Z,22.45
2018-05-21T09:39:12.005Z,22.44
2018-05-21T09:41:39.505Z,22.51
2018-05-21T09:44:07.017Z,22.49
2018-05-21T09:46:34.502Z,22.31
2018-05-21T09:49:02.041Z,21.95
2018-05-21T09:51:29.537Z,22.17
2018-05-21T09:53:57.037Z,22.43
2018-05-21T09:56:24.557Z,22.28
2018-05-21T09:58:52.049Z,22.46
2018-05-21T10:01:19.565Z,22.43
2018-05-21T10:03:47.064Z,22.54
2018-05-21T10:06:14.597Z,22.63
2018-05-21T10:08:42.094Z,22.60
2018-05-21T10:11:09.580Z,22.46
2018-05-21T10:13:37.098Z,22.43
2018-05-21T10:16:04.614Z,22.74
2018-05-21T10:18:32.141Z,23.04
2018-05-21T10:20:59.672Z,23.04
2018-05-21T10:23:27.154Z,22.95
2018-05-21T10:25:54.667Z,22.82
2018-05-21T10:28:22.152Z,23.34
2018-05-21T10:30:49.680Z,23.83
2018-05-21T10:33:17.181Z,23.46
2018-05-21T10:35:44.670Z,23.33
2018-05-21T10:38:12.185Z,23.08
2018-05-21T10:40:39.673Z,23.34
2018-05-21T10:43:07.597Z,22.97
2018-05-21T10:45:35.082Z,23.02
2018-05-21T10:48:02.579Z,22.76
2018-05-21T10:50:30.100Z,22.73
2018-05-21T10:52:57.593Z,23.31
2018-05-21T10:55:25.360Z,23.22
2018-05-21T10:57:52.929Z,23.55
2018-05-21T11:00:20.502Z,23.72
2018-05-21T11:02:48.032Z,23.68
2018-05-21T11:05:15.532Z,24.34
2018-05-21T11:07:43.201Z,24.20
2018-05-21T11:10:10.717Z,23.76
2018-05-21T11:12:38.208Z,24.34
2018-05-21T11:15:05.717Z,24.45
2018-05-21T11:17:33.198Z,24.36
2018-05-21T11:20:00.849Z,24.85
2018-05-21T11:22:28.333Z,24.70
2018-05-21T11:24:55.810Z,24.30
2018-05-21T11:27:23.321Z,24.15
2018-05-21T11:29:50.809Z,23.76
2018-05-21T11:32:18.410Z,24.07
2018-05-21T11:34:45.982Z,24.11
2018-05-21T11:37:13.480Z,24.22
2018-05-21T11:39:40.993Z,24.42
2018-05-21T11:42:08.504Z,24.98
2018-05-21T11:44:36.393Z,25.04
2018-05-21T11:47:03.877Z,24.08
2018-05-21T11:49:31.366Z,23.76
2018-05-21T11:51:58.904Z,23.93
2018-05-21T11:54:26.397Z,24.09
2018-05-21T11:56:53.917Z,24.07
2018-05-21T11:59:21.407Z,23.83
2018-05-21T12:01:48.905Z,24.47
2018-05-21T12:04:16.410Z,24.19
2018-05-21T12:06:43.921Z,24.28
2018-05-21T12:09:11.441Z,24.30
2018-05-21T12:11:38.925Z,24.80
2018-05-21T12:14:06.405Z,24.91
2018-05-21T12:16:33.917Z,25.01
2018-05-21T12:19:01.403Z,24.51
2018-05-21T12:21:29.097Z,24.38
2018-05-21T12:23:56.588Z,24.71
2018-05-21T12:26:24.072Z,24.80
2018-05-21T12:28:51.604Z,25.10
2018-05-21T12:31:19.103Z,25.54
2018-05-21T12:33:46.622Z,25.47
2018-05-21T12:36:14.105Z,24.36
2018-05-21T12:38:41.585Z,24.45
2018-05-21T12:41:09.236Z,24.36
2018-05-21T12:43:36.704Z,24.54
2018-05-21T12:46:04.234Z,24.45
2018-05-21T12:48:31.712Z,24.50
2018-05-21T12:50:59.307Z,24.76
2018-05-21T12:53:26.822Z,24.49
2018-05-21T12:55:54.310Z,24.56
2018-05-21T12:58:22.217Z,24.70
2018-05-21T13:00:49.712Z,25.04
2018-05-21T13:03:17.211Z,24.90
2018-05-21T13:05:44.741Z,24.98
2018-05-21T13:08:12.241Z,25.37
2018-05-21T13:10:39.773Z,24.90
2018-05-21T13:13:07.253Z,25.20
2018-05-21T13:15:34.745Z,25.25
2018-05-21T13:18:02.248Z,25.21
2018-05-21T13:20:29.733Z,24.50
2018-05-21T13:22:57.513Z,24.53
2018-05-21T13:25:25.010Z,24.87
2018-05-21T13:27:52.702Z,24.65
2018-05-21T13:30:20.229Z,25.00
2018-05-21T13:32:47.713Z,25.06
2018-05-21T13:35:15.581Z,24.86
2018-05-21T13:37:43.082Z,25.04
2018-05-21T13:40:10.573Z,24.96
2018-05-21T13:42:38.220Z,24.80
2018-05-21T13:45:05.707Z,24.80
2018-05-21T13:47:33.344Z,25.08
2018-05-21T13:50:00.830Z,25.36
2018-05-21T13:52:28.356Z,25.13
2018-05-21T13:54:55.853Z,25.47
2018-05-21T13:57:23.355Z,25.59
2018-05-21T13:59:51.102Z,25.41
2018-05-21T14:02:18.589Z,24.95
2018-05-21T14:04:46.073Z,25.13
2018-05-21T14:07:13.577Z,25.16
2018-05-21T14:09:41.055Z,25.29
2018-05-21T14:12:08.753Z,25.51
2018-05-21T14:14:36.237Z,25.12
2018-05-21T14:17:03.721Z,25.39
2018-05-21T14:19:31.248Z,25.68
2018-05-21T14:21:58.768Z,25.31
2018-05-21T14:24:26.295Z,25.15
2018-05-21T14:26:53.792Z,25.18
2018-05-21T14:29:21.269Z,25.31
2018-05-21T14:31:48.804Z,25.35
2018-05-21T14:34:16.306Z,25.33
2018-05-21T14:36:43.830Z,25.49
2018-05-21T14:39:11.319Z,25.48
2018-05-21T14:41:38.811Z,25.67
2018-05-21T14:44:06.329Z,25.79
2018-05-21T14:46:33.817Z,25.50
2018-05-21T14:49:01.347Z,25.35
2018-05-21T14:51:28.833Z,25.67
2018-05-21T14:53:56.326Z,25.48
2018-05-21T14:56:23.829Z,25.72
2018-05-21T14:58:51.317Z,25.22
2018-05-21T15:01:19.901Z,25.29
2018-05-21T15:03:47.379Z,25.21
2018-05-21T15:06:14.965Z,25.47
2018-05-21T15:08:42.485Z,25.21
2018-05-21T15:11:10.004Z,25.34
2018-05-21T15:13:37.522Z,25.32
2018-05-21T15:16:05.112Z,25.12
2018-05-21T15:18:32.544Z,25.19
2018-05-21T15:21:00.048Z,25.60
2018-05-21T15:23:27.527Z,25.24
2018-05-21T15:25:55.042Z,25.32
2018-05-21T15:28:22.553Z,25.71
2018-05-21T15:30:50.041Z,25.78
2018-05-21T15:33:17.543Z,25.83
2018-05-21T15:35:45.044Z,25.46
2018-05-21T15:38:12.980Z,25.78
2018-05-21T15:40:40.465Z,26.01
2018-05-21T15:43:07.965Z,25.97
2018-05-21T15:45:35.468Z,25.90
2018-05-21T15:48:02.969Z,26.24
2018-05-21T15:50:30.946Z,26.17
2018-05-21T15:52:58.421Z,26.02
2018-05-21T15:55:25.921Z,25.94
2018-05-21T15:57:53.437Z,25.86
2018-05-21T16:00:20.920Z,26.17
2018-05-21T16:02:48.467Z,26.22
2018-05-21T16:05:15.948Z,26.10
2018-05-21T16:07:43.435Z,26.18
2018-05-21T16:10:10.935Z,26.07
2018-05-21T16:12:38.418Z,25.87
2018-05-21T16:15:05.953Z,26.14
2018-05-21T16:17:33.433Z,25.80
2018-05-21T16:20:00.925Z,25.69
2018-05-21T16:22:28.435Z,25.71
2018-05-21T16:24:55.926Z,25.64
2018-05-21T16:27:23.717Z,25.63
2018-05-21T16:29:51.201Z,25.42
2018-05-21T16:32:18.688Z,25.70
2018-05-21T16:34:46.196Z,25.66
2018-05-21T16:37:13.669Z,25.73
2018-05-21T16:39:41.157Z,25.80
2018-05-21T16:42:08.661Z,25.96
2018-05-21T16:44:36.145Z,25.68
2018-05-21T16:47:03.621Z,25.85
2018-05-21T16:49:31.166Z,25.59
2018-05-21T16:51:58.649Z,25.68
2018-05-21T16:54:26.125Z,25.43
2018-05-21T16:56:53.649Z,25.58
2018-05-21T16:59:21.124Z,25.48
2018-05-21T17:01:48.610Z,25.39
2018-05-21T17:04:16.137Z,25.35
2018-05-21T17:06:43.633Z,25.35
2018-05-21T17:09:11.117Z,25.38
2018-05-21T17:11:38.777Z,25.54
2018-05-21T17:14:06.262Z,25.75
2018-05-21T17:16:33.749Z,25.79
2018-05-21T17:19:01.300Z,25.77
2018-05-21T17:21:28.781Z,25.50
2018-05-21T17:23:56.351Z,25.45
2018-05-21T17:26:24.062Z,25.36
2018-05-21T17:28:51.549Z,25.23
2018-05-21T17:31:19.038Z,25.42
2018-05-21T17:33:46.541Z,25.29
2018-05-21T17:36:14.038Z,25.42
2018-05-21T17:38:41.858Z,25.41
2018-05-21T17:41:09.358Z,25.41
2018-05-21T17:43:36.853Z,25.19
2018-05-21T17:46:04.377Z,25.17
2018-05-21T17:48:31.863Z,25.14
2018-05-21T17:50:59.621Z,25.08
2018-05-21T17:53:27.097Z,25.15
2018-05-21T17:55:54.589Z,25.06
2018-05-21T17:58:23.104Z,25.07
2018-05-21T18:00:50.618Z,24.95
2018-05-21T18:03:18.243Z,24.90
2018-05-21T18:05:45.686Z,24.79
2018-05-21T18:08:13.182Z,24.71
2018-05-21T18:10:40.727Z,24.77
2018-05-21T18:13:08.221Z,24.86
2018-05-21T18:15:35.757Z,25.03
2018-05-21T18:18:03.245Z,25.03
2018-05-21T18:20:30.732Z,25.03
2018-05-21T18:22:58.245Z,25.05
2018-05-21T18:25:25.742Z,24.91
2018-05-21T18:27:53.510Z,24.61
2018-05-21T18:30:21.063Z,24.51
2018-05-21T18:32:48.540Z,24.23
2018-05-21T18:35:16.057Z,24.05
2018-05-21T18:37:43.614Z,23.94
2018-05-21T18:40:11.284Z,23.67
2018-05-21T18:42:38.809Z,23.43
2018-05-21T18:45:06.336Z,23.47
2018-05-21T18:47:34.117Z,23.30
2018-05-21T18:50:01.643Z,22.95
2018-05-21T18:52:29.428Z,23.10
2018-05-21T18:54:57.122Z,23.03
2018-05-21T18:57:24.766Z,22.83
2018-05-21T18:59:52.596Z,22.73
2018-05-21T19:02:20.161Z,22.69
2018-05-21T19:04:47.933Z,22.73
2018-05-21T19:07:15.815Z,22.58
2018-05-21T19:09:43.695Z,22.49
2018-05-21T19:12:11.369Z,22.41
2018-05-21T19:14:38.990Z,22.35
2018-05-21T19:17:07.979Z,22.31
2018-05-21T19:19:35.593Z,22.23
2018-05-21T19:22:03.275Z,22.10
2018-05-21T19:24:31.176Z,21.97
2018-05-21T19:26:59.036Z,21.97
2018-05-21T19:29:26.834Z,21.86
2018-05-21T19:31:55.233Z,21.75
2018-05-21T19:34:23.520Z,21.62
2018-05-21T19:36:51.123Z,21.46
2018-05-21T19:39:18.646Z,21.47
2018-05-21T19:41:46.334Z,21.39
2018-05-21T19:44:13.911Z,21.32
2018-05-21T19:46:41.602Z,21.26
2018-05-21T19:49:09.351Z,21.18
2018-05-21T19:51:37.033Z,21.18
2018-05-21T19:54:04.876Z,21.08
2018-05-21T19:56:32.686Z,20.84
2018-05-21T19:59:00.299Z,20.59
2018-05-21T20:01:28.255Z,20.45
2018-05-21T20:03:55.823Z,20.38
2018-05-21T20:06:24.007Z,20.45
2018-05-21T20:08:52.177Z,20.18
2018-05-21T20:11:20.280Z,19.92
2018-05-21T20:13:48.034Z,19.85
2018-05-21T20:16:15.525Z,19.75
2018-05-21T20:18:43.304Z,19.63
2018-05-21T20:21:10.828Z,19.60
2018-05-21T20:23:38.329Z,19.63
2018-05-21T20:26:05.918Z,19.54
2018-05-21T20:28:33.520Z,19.40
2018-05-21T20:31:01.266Z,19.52
2018-05-21T20:33:28.864Z,19.44
2018-05-21T20:35:56.417Z,19.33
2018-05-21T20:38:23.982Z,19.32
2018-05-21T20:40:51.482Z,19.24
2018-05-21T20:43:19.316Z,19.02
2018-05-21T20:45:46.833Z,18.99
2018-05-21T20:48:14.326Z,18.86
2018-05-21T20:50:41.846Z,18.87
2018-05-21T20:53:09.329Z,18.60
2018-05-21T20:55:37.026Z,18.56
2018-05-21T20:58:04.517Z,18.49
2018-05-21T21:00:32.017Z,18.30
2018-05-21T21:02:59.537Z,18.53
2018-05-21T21:05:27.034Z,18.26
2018-05-21T21:07:54.708Z,18.16
2018-05-21T21:10:22.218Z,18.28
2018-05-21T21:12:49.705Z,18.17
2018-05-21T21:15:17.236Z,18.11
2018-05-21T21:17:44.731Z,18.01
2018-05-21T21:20:12.249Z,18.02
2018-05-21T21:22:39.744Z,18.02
2018-05-21T21:25:07.232Z,17.97
2018-05-21T21:27:34.764Z,18.02
2018-05-21T21:30:02.265Z,18.01
2018-05-21T21:32:29.791Z,17.90
2018-05-21T21:34:57.287Z,17.73
2018-05-21T21:37:24.769Z,17.82
2018-05-21T21:39:52.272Z,17.75
2018-05-21T21:42:19.763Z,17.56
2018-05-21T21:44:47.440Z,17.54
2018-05-21T21:47:14.921Z,17.60
2018-05-21T21:49:42.399Z,17.58
2018-05-21T21:52:09.910Z,17.36
2018-05-21T21:54:37.391Z,17.38
2018-05-21T21:57:04.925Z,17.19
2018-05-21T21:59:32.406Z,17.18
2018-05-21T22:01:59.890Z,17.18
2018-05-21T22:04:27.390Z,17.30
2018-05-21T22:06:54.870Z,17.04
2018-05-21T22:09:22.485Z,17.13
2018-05-21T22:11:49.959Z,17.14
2018-05-21T22:14:17.433Z,17.11
2018-05-21T22:16:44.933Z,16.96
2018-05-21T22:19:12.417Z,16.47
2018-05-21T22:21:39.969Z,16.72
2018-05-21T22:24:07.469Z,16.67
2018-05-21T22:26:34.993Z,16.80
2018-05-21T22:29:02.497Z,16.54
2018-05-21T22:31:29.973Z,16.68
2018-05-21T22:33:57.689Z,16.52
2018-05-21T22:36:25.175Z,16.43
2018-05-21T22:38:52.654Z,16.50
2018-05-21T22:41:20.155Z,16.59
2018-05-21T22:43:47.633Z,16.49
2018-05-21T22:46:15.253Z,16.59
2018-05-21T22:48:42.740Z,16.55
2018-05-21T22:51:10.220Z,16.70
2018-05-21T22:53:37.725Z,16.42
2018-05-21T22:56:05.210Z,16.42
2018-05-21T22:58:32.724Z,16.18
2018-05-21T23:01:00.201Z,16.23
2018-05-21T23:03:27.852Z,16.23
2018-05-21T23:05:55.344Z,16.30
2018-05-21T23:08:22.845Z,16.42
2018-05-21T23:10:50.352Z,16.34
2018-05-21T23:13:17.848Z,16.18
2018-05-21T23:15:45.497Z,16.17
2018-05-21T23:18:12.973Z,16.26
2018-05-21T23:20:40.470Z,16.09
2018-05-21T23:23:07.980Z,15.94
2018-05-21T23:25:35.461Z,16.02
2018-05-21T23:28:02.975Z,15.86
2018-05-21T23:30:30.461Z,15.91
2018-05-21T23:32:57.957Z,15.99
2018-05-21T23:35:25.462Z,16.07
2018-05-21T23:37:52.986Z,15.75
2018-05-21T23:40:20.590Z,15.59
2018-05-21T23:42:48.077Z,15.41
2018-05-21T23:45:15.564Z,15.41
2018-05-21T23:47:43.064Z,15.48
2018-05-21T23:50:10.547Z,15.54
2018-05-21T23:52:38.260Z,15.43
2018-05-21T23:55:05.740Z,15.50
2018-05-21T23:57:33.244Z,15.46
